createdAt,value
2022-09-17T00:00:52.893Z,153095.09
2022-09-17T00:03:20.286Z,153064.13
2022-09-17T00:05:47.640Z,153047.41
2022-09-17T00:08:16.088Z,153069.31
2022-09-17T00:10:45.097Z,153048.66
2022-09-17T00:13:13.114Z,153022.88
2022-09-17T00:15:42.048Z,153029.34
2022-09-17T00:18:10.962Z,153015.16
2022-09-17T00:20:39.807Z,153033.22
2022-09-17T00:23:08.044Z,153057.72
2022-09-17T00:25:35.547Z,153064.13
2022-09-17T00:28:03.072Z,153057.72
2022-09-17T00:30:30.448Z,153048.66
2022-09-17T00:32:57.799Z,153056.44
2022-09-17T00:35:27.146Z,153120.91
2022-09-17T00:37:54.871Z,153084.81
2022-09-17T00:40:23.027Z,153061.59
2022-09-17T00:42:50.779Z,153051.25
2022-09-17T00:45:18.345Z,153043.53
2022-09-17T00:47:51.491Z,153042.22
2022-09-17T00:50:24.230Z,153061.59
2022-09-17T00:52:56.397Z,153040.94
2022-09-17T00:55:26.185Z,153088.63
2022-09-17T00:57:57.936Z,153088.63
2022-09-17T01:00:26.350Z,153071.91
2022-09-17T01:02:54.619Z,153088.63
2022-09-17T01:05:29.746Z,153066.72
2022-09-17T01:08:14.328Z,153084.81
2022-09-17T01:11:08.919Z,153089.94
2022-09-17T01:13:46.569Z,153087.38
2022-09-17T01:16:20.625Z,153047.41
2022-09-17T01:19:01.557Z,153064.13
2022-09-17T01:21:39.868Z,153082.22
2022-09-17T01:24:26.946Z,153068.03
2022-09-17T01:27:20.409Z,153086.09
2022-09-17T01:30:06.816Z,153052.53
2022-09-17T01:32:39.626Z,153082.22
2022-09-17T01:35:15.348Z,153069.31
2022-09-17T01:37:50.988Z,153056.44
2022-09-17T01:40:25.731Z,153077.03
2022-09-17T01:43:00.514Z,153074.50
2022-09-17T01:45:35.293Z,153071.91
2022-09-17T01:48:08.769Z,153092.50
2022-09-17T01:50:39.881Z,153118.31
2022-09-17T01:53:11.269Z,153087.38
2022-09-17T01:55:41.746Z,153110.59
2022-09-17T01:58:15.433Z,153089.94
2022-09-17T02:00:48.495Z,153113.19
2022-09-17T02:03:22.272Z,153106.69
2022-09-17T02:05:53.110Z,153056.44
2022-09-17T02:08:24.323Z,153071.91
2022-09-17T02:10:56.545Z,153095.09
2022-09-17T02:13:31.290Z,153071.91
2022-09-17T02:16:13.295Z,153061.59
2022-09-17T02:18:48.457Z,153084.81
2022-09-17T02:21:21.651Z,153087.38
2022-09-17T02:23:58.654Z,153049.94
2022-09-17T02:26:28.602Z,153082.22
2022-09-17T02:29:00.580Z,153064.13
2022-09-17T02:31:28.040Z,153051.25
2022-09-17T02:34:01.630Z,153069.31
2022-09-17T02:36:29.562Z,153066.72
2022-09-17T02:39:00.419Z,153052.53
2022-09-17T02:41:38.732Z,153048.66
2022-09-17T02:44:18.416Z,153055.13
2022-09-17T02:47:05.812Z,153071.91
2022-09-17T02:49:50.083Z,153040.94
2022-09-17T02:52:25.995Z,153052.53
2022-09-17T02:55:08.767Z,153035.75
2022-09-17T02:57:41.309Z,153039.66
2022-09-17T03:00:14.673Z,153053.84
2022-09-17T03:02:44.702Z,153028.03
2022-09-17T03:05:14.360Z,153066.72
2022-09-17T03:07:41.887Z,153035.75
2022-09-17T03:10:09.492Z,153031.94
2022-09-17T03:12:37.673Z,153053.84
2022-09-17T03:15:06.249Z,153042.22
2022-09-17T03:17:33.869Z,153046.13
2022-09-17T03:20:01.238Z,153040.94
2022-09-17T03:22:29.907Z,153030.63
2022-09-17T03:24:57.511Z,153082.22
2022-09-17T03:27:24.994Z,153056.44
2022-09-17T03:29:52.350Z,153056.44
2022-09-17T03:32:19.713Z,153038.34
2022-09-17T03:34:47.798Z,153079.63
2022-09-17T03:37:15.448Z,153053.84
2022-09-17T03:39:44.155Z,153022.88
2022-09-17T03:42:11.487Z,153002.25
2022-09-17T03:44:42.423Z,153013.88
2022-09-17T03:47:12.610Z,153025.47
2022-09-17T03:49:39.952Z,153055.13
2022-09-17T03:52:07.292Z,153087.38
2022-09-17T03:54:34.669Z,153077.03
2022-09-17T03:57:03.377Z,153039.66
2022-09-17T03:59:30.920Z,153021.56
2022-09-17T04:01:58.462Z,153033.22
2022-09-17T04:04:25.881Z,153037.06
2022-09-17T04:06:54.488Z,153024.16
2022-09-17T04:09:21.814Z,153020.34
2022-09-17T04:11:50.450Z,153019.03
2022-09-17T04:14:19.123Z,153011.28
2022-09-17T04:16:46.469Z,153029.34
2022-09-17T04:19:13.852Z,153021.56
2022-09-17T04:21:41.210Z,153047.41
2022-09-17T04:24:08.997Z,153048.66
2022-09-17T04:26:36.355Z,153008.69
2022-09-17T04:29:04.229Z,152971.31
2022-09-17T04:31:32.916Z,153025.47
2022-09-17T04:34:00.376Z,153021.56
2022-09-17T04:36:27.954Z,153019.03
2022-09-17T04:38:55.308Z,152997.09
2022-09-17T04:41:22.709Z,152971.31
2022-09-17T04:43:50.252Z,153013.88
2022-09-17T04:46:17.878Z,152971.31
2022-09-17T04:48:46.575Z,152961.00
2022-09-17T04:51:13.997Z,152986.78
2022-09-17T04:53:41.340Z,152975.19
2022-09-17T04:56:08.677Z,152945.53
2022-09-17T04:58:36.056Z,152963.59
2022-09-17T05:01:03.554Z,152932.63
2022-09-17T05:03:31.051Z,152961.00
2022-09-17T05:06:00.110Z,152914.59
2022-09-17T05:08:27.446Z,152953.28
2022-09-17T05:10:54.780Z,152954.53
2022-09-17T05:13:22.179Z,152945.53
2022-09-17T05:15:49.596Z,152917.16
2022-09-17T05:18:16.967Z,152922.34
2022-09-17T05:20:44.352Z,152915.88
2022-09-17T05:23:13.027Z,152915.88
2022-09-17T05:25:40.461Z,152950.72
2022-09-17T05:28:07.839Z,152994.50
2022-09-17T05:30:35.834Z,152930.06
2022-09-17T05:33:05.595Z,152952.00
2022-09-17T05:35:33.523Z,152942.94
2022-09-17T05:38:01.542Z,152955.84
2022-09-17T05:40:32.650Z,152926.22
2022-09-17T05:43:01.156Z,152948.13
2022-09-17T05:45:28.903Z,152932.63
2022-09-17T05:47:57.456Z,152952.00
2022-09-17T05:50:24.911Z,152948.13
2022-09-17T05:52:52.735Z,152950.72
2022-09-17T05:55:22.193Z,152997.09
2022-09-17T05:57:50.963Z,153006.16
2022-09-17T06:00:18.819Z,153007.44
2022-09-17T06:02:46.539Z,153019.03
2022-09-17T06:05:13.924Z,152968.72
2022-09-17T06:07:41.263Z,153017.75
2022-09-17T06:10:09.422Z,153015.16
2022-09-17T06:12:36.849Z,153043.53
2022-09-17T06:15:06.657Z,153040.94
2022-09-17T06:17:34.320Z,153053.84
2022-09-17T06:20:01.939Z,153035.75
2022-09-17T06:22:29.339Z,153037.06
2022-09-17T06:24:56.772Z,153077.03
2022-09-17T06:27:24.150Z,153037.06
2022-09-17T06:29:51.473Z,153022.88
2022-09-17T06:32:20.233Z,152953.75
2022-09-17T06:34:48.740Z,149844.00
2022-09-17T06:37:16.376Z,149431.66
2022-09-17T06:39:44.066Z,145400.25
2022-09-17T06:42:12.377Z,148981.84
2022-09-17T06:44:44.652Z,147848.75
2022-09-17T06:47:12.014Z,151374.16
2022-09-17T06:49:40.698Z,150676.16
2022-09-17T06:52:08.063Z,151652.25
2022-09-17T06:54:35.474Z,150259.03
2022-09-17T06:57:02.820Z,150363.88
2022-09-17T06:59:30.172Z,148773.00
2022-09-17T07:01:57.913Z,148003.84
2022-09-17T07:04:25.375Z,141640.59
2022-09-17T07:06:54.052Z,141623.94
2022-09-17T07:09:21.451Z,132946.25
2022-09-17T07:11:48.844Z,122578.88
2022-09-17T07:14:16.208Z,109131.31
2022-09-17T07:16:43.556Z,103268.53
2022-09-17T07:19:11.225Z,94354.97
2022-09-17T07:21:39.326Z,87171.88
2022-09-17T07:24:08.655Z,82713.88
2022-09-17T07:26:36.039Z,78271.34
2022-09-17T07:29:03.513Z,72514.72
2022-09-17T07:31:31.293Z,71141.91
2022-09-17T07:33:59.335Z,67440.66
2022-09-17T07:36:26.702Z,67076.34
2022-09-17T07:38:54.438Z,65725.72
2022-09-17T07:41:23.187Z,65065.09
2022-09-17T07:43:54.397Z,65418.13
2022-09-17T07:46:22.508Z,66095.03
2022-09-17T07:48:51.289Z,67141.56
2022-09-17T07:51:19.336Z,69506.47
2022-09-17T07:53:47.662Z,69869.22
2022-09-17T07:56:15.280Z,71906.13
2022-09-17T07:58:43.955Z,74969.47
2022-09-17T08:01:13.133Z,77370.63
2022-09-17T08:03:41.016Z,77718.56
2022-09-17T08:06:09.982Z,77737.56
2022-09-17T08:08:38.337Z,79433.50
2022-09-17T08:11:08.501Z,80777.28
2022-09-17T08:13:36.619Z,80448.47
2022-09-17T08:16:07.694Z,80788.16
2022-09-17T08:18:35.981Z,82502.31
2022-09-17T08:21:05.204Z,87277.66
2022-09-17T08:23:35.570Z,94131.72
2022-09-17T08:26:03.637Z,95525.91
2022-09-17T08:28:32.397Z,101405.72
2022-09-17T08:31:02.414Z,106594.78
2022-09-17T08:33:33.560Z,121738.47
2022-09-17T08:36:01.379Z,130753.59
2022-09-17T08:38:30.606Z,136649.41
2022-09-17T08:41:10.813Z,137346.88
2022-09-17T08:43:43.697Z,143286.50
2022-09-17T08:46:12.343Z,153407.41
2022-09-17T08:48:45.997Z,153451.31
2022-09-17T08:51:33.339Z,153464.22
2022-09-17T08:54:08.309Z,153540.41
2022-09-17T08:56:38.489Z,153583.06
2022-09-17T08:59:21.871Z,153676.06
2022-09-17T09:01:58.287Z,153621.81
2022-09-17T09:04:47.016Z,153660.56
2022-09-17T09:07:18.652Z,153681.25
2022-09-17T09:09:54.151Z,153752.28
2022-09-17T09:12:26.507Z,153670.88
2022-09-17T09:14:59.906Z,153673.47
2022-09-17T09:17:30.482Z,153704.50
2022-09-17T09:19:59.184Z,153683.81
2022-09-17T09:22:47.468Z,153673.47
2022-09-17T09:25:23.380Z,153686.41
2022-09-17T09:28:07.691Z,153691.59
2022-09-17T09:30:48.724Z,153727.75
2022-09-17T09:33:20.287Z,153735.53
2022-09-17T09:35:49.117Z,153730.34
2022-09-17T09:38:23.507Z,153738.06
2022-09-17T09:40:57.051Z,153774.28
2022-09-17T09:43:52.678Z,153789.81
2022-09-17T09:46:40.429Z,153778.13
2022-09-17T09:49:19.971Z,153776.81
2022-09-17T09:52:01.265Z,153782.00
2022-09-17T09:54:42.811Z,153822.06
2022-09-17T09:57:13.850Z,153792.34
2022-09-17T09:59:41.479Z,153691.59
2022-09-17T10:02:09.655Z,153686.41
2022-09-17T10:04:37.212Z,153753.56
2022-09-17T10:07:07.749Z,153948.84
2022-09-17T10:09:36.975Z,154000.53
2022-09-17T10:12:15.364Z,154025.09
2022-09-17T10:14:45.095Z,154111.78
2022-09-17T10:17:17.444Z,153871.28
2022-09-17T10:19:45.664Z,153863.50
2022-09-17T10:22:26.940Z,153727.75
2022-09-17T10:24:56.743Z,153705.78
2022-09-17T10:27:26.004Z,153616.63
2022-09-17T10:30:02.500Z,153539.09
2022-09-17T10:32:29.978Z,153502.97
2022-09-17T10:35:06.433Z,153546.88
2022-09-17T10:37:42.630Z,153625.69
2022-09-17T10:40:28.394Z,153542.97
2022-09-17T10:43:22.442Z,153598.56
2022-09-17T10:46:01.030Z,153603.72
2022-09-17T10:48:33.547Z,153642.47
2022-09-17T10:51:02.941Z,153621.81
2022-09-17T10:53:31.595Z,153638.63
2022-09-17T10:56:07.792Z,153739.38
2022-09-17T10:58:49.363Z,153709.63
2022-09-17T11:01:30.092Z,153818.19
2022-09-17T11:04:14.932Z,153938.50
2022-09-17T11:07:15.078Z,153966.91
2022-09-17T11:09:53.547Z,153893.22
2022-09-17T11:12:33.365Z,154019.91
2022-09-17T11:15:08.167Z,154113.06
2022-09-17T11:17:52.767Z,154043.22
2022-09-17T11:20:25.523Z,154105.28
2022-09-17T11:23:05.527Z,153969.50
2022-09-17T11:25:45.619Z,153769.09
2022-09-17T11:28:30.827Z,153735.53
2022-09-17T11:31:10.823Z,153712.22
2022-09-17T11:33:54.561Z,153835.00
2022-09-17T11:36:26.214Z,154060.06
2022-09-17T11:38:57.502Z,154211.41
2022-09-17T11:41:30.470Z,154327.91
2022-09-17T11:44:08.840Z,154203.66
2022-09-17T11:46:42.936Z,154097.53
2022-09-17T11:49:19.763Z,153997.94
2022-09-17T11:51:51.469Z,153738.06
2022-09-17T11:54:24.544Z,153659.25
2022-09-17T11:56:55.539Z,153528.78
2022-09-17T11:59:30.355Z,153451.31
2022-09-17T12:02:02.378Z,153376.41
2022-09-17T12:04:42.407Z,153380.31
2022-09-17T12:07:20.322Z,153457.75
2022-09-17T12:09:54.720Z,153426.75
2022-09-17T12:12:48.515Z,153539.09
2022-09-17T12:15:18.762Z,153549.41
2022-09-17T12:18:08.701Z,153688.97
2022-09-17T12:20:46.263Z,153714.81
2022-09-17T12:23:16.856Z,153725.16
2022-09-17T12:25:53.728Z,153749.69
2022-09-17T12:28:30.399Z,153695.47
2022-09-17T12:31:04.229Z,153717.41
2022-09-17T12:33:35.169Z,153735.53
2022-09-17T12:36:23.794Z,153751.00
2022-09-17T12:39:06.420Z,153770.41
2022-09-17T12:41:44.504Z,153583.06
2022-09-17T12:44:27.487Z,153701.91
2022-09-17T12:47:09.748Z,153633.44
2022-09-17T12:49:54.483Z,153787.19
2022-09-17T12:52:36.998Z,153942.34
2022-09-17T12:55:26.076Z,153975.97
2022-09-17T12:58:02.561Z,154123.41
2022-09-17T13:00:41.338Z,154053.56
2022-09-17T13:03:18.631Z,154066.50
2022-09-17T13:06:28.436Z,154131.16
2022-09-17T13:09:28.786Z,154128.56
2022-09-17T13:12:08.160Z,154087.22
2022-09-17T13:14:58.880Z,154003.13
2022-09-17T13:17:34.594Z,153937.19
2022-09-17T13:20:12.716Z,153922.97
2022-09-17T13:22:46.260Z,153943.63
2022-09-17T13:25:16.508Z,153973.38
2022-09-17T13:27:44.726Z,153869.97
2022-09-17T13:30:15.137Z,153621.81
2022-09-17T13:32:45.209Z,153580.47
2022-09-17T13:35:46.415Z,153619.22
2022-09-17T13:38:13.859Z,153598.56
2022-09-17T13:40:41.343Z,153601.16
2022-09-17T13:43:11.435Z,153621.81
2022-09-17T13:46:12.610Z,153632.13
2022-09-17T13:48:50.880Z,153866.09
2022-09-17T13:51:52.071Z,153924.28
2022-09-17T13:54:22.076Z,153965.66
2022-09-17T13:57:03.301Z,153926.81
2022-09-17T13:59:31.368Z,154004.44
2022-09-17T14:02:01.995Z,154066.50
2022-09-17T14:04:47.663Z,153996.66
2022-09-17T14:07:48.857Z,154001.84
2022-09-17T14:10:37.520Z,153966.91
2022-09-17T14:13:28.271Z,153957.88
2022-09-17T14:16:01.695Z,153893.22
2022-09-17T14:18:38.726Z,153875.13
2022-09-17T14:21:15.413Z,153837.59
2022-09-17T14:23:44.767Z,153851.81
2022-09-17T14:26:18.863Z,153867.38
2022-09-17T14:28:54.255Z,153869.97
2022-09-17T14:31:28.138Z,153888.03
2022-09-17T14:33:56.481Z,153885.44
2022-09-17T14:36:25.434Z,153791.03
2022-09-17T14:38:56.417Z,153754.88
2022-09-17T14:41:26.649Z,153779.41
2022-09-17T14:43:59.279Z,153761.38
2022-09-17T14:46:30.293Z,153792.34
2022-09-17T14:49:14.837Z,153772.97
2022-09-17T14:51:43.634Z,153771.69
2022-09-17T14:54:23.849Z,153802.72
2022-09-17T14:57:01.951Z,153792.34
2022-09-17T14:59:48.217Z,153822.06
2022-09-17T15:02:30.192Z,153753.56
2022-09-17T15:04:58.528Z,153753.56
2022-09-17T15:07:27.964Z,153740.66
2022-09-17T15:09:56.035Z,153735.53
2022-09-17T15:12:29.535Z,153749.69
2022-09-17T15:14:58.296Z,153709.63
2022-09-17T15:17:25.897Z,153726.44
2022-09-17T15:19:57.808Z,153741.97
2022-09-17T15:22:30.611Z,153745.84
2022-09-17T15:25:02.631Z,153782.00
2022-09-17T15:27:32.560Z,153835.00
2022-09-17T15:30:04.584Z,153818.19
2022-09-17T15:32:33.208Z,153836.28
2022-09-17T15:35:30.464Z,153877.72
2022-09-17T15:40:49.823Z,153916.50
2022-09-17T15:43:22.662Z,153911.34
2022-09-17T15:45:50.042Z,153911.34
2022-09-17T15:48:35.125Z,153932.00
2022-09-17T15:51:04.984Z,153880.31
2022-09-17T15:53:34.950Z,153837.59
2022-09-17T15:56:06.784Z,153857.00
2022-09-17T15:58:39.076Z,153836.28
2022-09-17T16:01:54.683Z,153823.38
2022-09-17T16:04:32.709Z,153849.22
2022-09-17T16:07:03.179Z,153805.25
2022-09-17T16:09:43.905Z,153763.91
2022-09-17T16:12:14.508Z,153756.16
2022-09-17T16:14:50.676Z,153723.84
2022-09-17T16:17:24.218Z,153730.34
2022-09-17T16:19:52.680Z,153664.44
2022-09-17T16:22:20.024Z,153656.66
2022-09-17T16:24:48.741Z,153602.41
2022-09-17T16:27:20.843Z,153567.50
2022-09-17T16:29:49.266Z,153553.31
2022-09-17T16:32:16.676Z,153611.50
2022-09-17T16:34:44.057Z,153580.47
2022-09-17T16:37:11.638Z,153602.41
2022-09-17T16:39:38.963Z,153559.78
2022-09-17T16:42:07.815Z,153571.44
2022-09-17T16:44:35.236Z,153561.03
2022-09-17T16:47:02.650Z,153554.59
2022-09-17T16:49:30.097Z,153575.28
2022-09-17T16:51:57.440Z,153559.78
2022-09-17T16:54:24.802Z,153526.19
2022-09-17T16:56:52.139Z,153521.00
2022-09-17T16:59:20.804Z,153526.19
2022-09-17T17:01:50.097Z,153546.88
2022-09-17T17:04:17.588Z,153521.00
2022-09-17T17:06:44.919Z,153496.47
2022-09-17T17:09:12.277Z,153518.47
2022-09-17T17:11:39.651Z,153417.72
2022-09-17T17:14:13.981Z,153420.31
2022-09-17T17:16:43.589Z,153358.34
2022-09-17T17:19:11.032Z,153331.28
2022-09-17T17:21:38.687Z,153273.19
2022-09-17T17:24:07.376Z,153348.00
2022-09-17T17:26:35.273Z,153309.31
2022-09-17T17:29:03.422Z,153319.63
2022-09-17T17:31:30.865Z,153306.72
2022-09-17T17:33:59.789Z,153273.19
2022-09-17T17:36:27.917Z,153208.63
2022-09-17T17:38:57.515Z,153199.56
2022-09-17T17:41:27.143Z,153187.97
2022-09-17T17:43:54.933Z,153128.66
2022-09-17T17:46:23.185Z,153115.72
2022-09-17T17:48:51.182Z,153157.00
2022-09-17T17:51:20.068Z,153169.88
2022-09-17T17:53:47.423Z,153167.34
2022-09-17T17:56:14.792Z,153203.47
2022-09-17T17:58:42.165Z,153180.25
2022-09-17T18:01:14.417Z,153146.69
2022-09-17T18:03:42.019Z,153208.63
2022-09-17T18:06:09.818Z,153182.84
2022-09-17T18:08:39.109Z,153131.19
2022-09-17T18:11:08.202Z,153172.47
2022-09-17T18:13:36.255Z,153138.97
2022-09-17T18:16:06.002Z,153101.56
2022-09-17T18:18:35.149Z,153096.41
2022-09-17T18:21:03.909Z,153105.41
2022-09-17T18:23:31.462Z,153082.22
2022-09-17T18:26:01.689Z,153028.03
2022-09-17T18:28:30.593Z,153025.47
2022-09-17T18:30:58.112Z,152998.38
2022-09-17T18:33:27.957Z,153020.34
2022-09-17T18:36:01.004Z,153000.97
2022-09-17T18:38:28.374Z,152989.38
2022-09-17T18:40:55.713Z,153035.75
2022-09-17T18:43:24.363Z,152998.38
2022-09-17T18:45:56.301Z,152994.50
2022-09-17T18:48:23.723Z,152950.72
2022-09-17T18:50:59.037Z,152935.22
2022-09-17T18:53:27.601Z,152942.94
2022-09-17T18:55:56.705Z,152909.47
2022-09-17T18:58:25.366Z,152904.28
2022-09-17T19:00:52.802Z,152899.16
2022-09-17T19:03:20.369Z,152886.22
2022-09-17T19:05:47.720Z,152888.75
2022-09-17T19:08:15.045Z,152893.94
2022-09-17T19:10:42.388Z,152893.94
2022-09-17T19:13:09.839Z,152921.03
2022-09-17T19:15:38.507Z,152913.34
2022-09-17T19:18:06.044Z,152914.59
2022-09-17T19:20:36.987Z,152921.03
2022-09-17T19:23:04.553Z,152927.47
2022-09-17T19:25:32.582Z,152953.28
2022-09-17T19:28:00.185Z,152967.44
2022-09-17T19:30:29.691Z,152948.13
2022-09-17T19:32:58.992Z,152949.41
2022-09-17T19:35:27.276Z,153022.88
2022-09-17T19:37:58.481Z,153033.22
2022-09-17T19:40:26.356Z,152966.19
2022-09-17T19:42:54.483Z,152945.53
2022-09-17T19:45:22.486Z,152914.59
2022-09-17T19:47:51.183Z,152928.75
2022-09-17T19:50:19.844Z,152975.19
2022-09-17T19:52:47.233Z,152959.72
2022-09-17T19:55:14.596Z,152967.44
2022-09-17T19:57:42.161Z,152966.19
2022-09-17T20:00:11.424Z,152944.25
2022-09-17T20:02:38.896Z,152923.63
2022-09-17T20:05:06.645Z,152928.75
2022-09-17T20:07:35.534Z,152891.34
2022-09-17T20:10:03.246Z,152899.16
2022-09-17T20:12:30.601Z,152857.84
2022-09-17T20:14:57.950Z,152860.41
2022-09-17T20:17:25.300Z,152834.63
2022-09-17T20:19:52.615Z,152826.91
2022-09-17T20:22:19.952Z,152803.72
2022-09-17T20:24:51.033Z,152864.28
2022-09-17T20:27:18.659Z,152826.91
2022-09-17T20:29:46.179Z,152842.38
2022-09-17T20:32:13.516Z,152777.97
2022-09-17T20:34:40.924Z,152717.38
2022-09-17T20:37:13.428Z,152710.97
2022-09-17T20:39:41.101Z,152703.22
2022-09-17T20:42:09.796Z,152717.38
2022-09-17T20:44:37.135Z,152671.03
2022-09-17T20:47:05.462Z,152718.69
2022-09-17T20:49:32.947Z,152721.28
2022-09-17T20:52:00.315Z,152718.69
2022-09-17T20:54:27.659Z,152713.50
2022-09-17T20:56:55.003Z,152752.16
2022-09-17T20:59:27.388Z,152705.81
2022-09-17T21:01:55.926Z,152681.34
2022-09-17T21:04:25.466Z,152772.78
2022-09-17T21:06:53.947Z,152721.28
2022-09-17T21:09:21.395Z,152707.09
2022-09-17T21:11:49.643Z,152674.88
2022-09-17T21:14:18.060Z,152680.03
2022-09-17T21:16:48.878Z,152667.16
2022-09-17T21:19:16.827Z,152646.53
2022-09-17T21:21:44.428Z,152659.41
2022-09-17T21:24:12.641Z,152683.94
2022-09-17T21:26:40.089Z,152667.16
2022-09-17T21:29:07.709Z,152674.88
2022-09-17T21:31:37.424Z,152677.47
2022-09-17T21:34:07.980Z,152727.69
2022-09-17T21:36:37.364Z,152762.50
2022-09-17T21:39:07.068Z,152758.63
2022-09-17T21:41:38.605Z,152734.16
2022-09-17T21:44:09.173Z,152691.63
2022-09-17T21:46:37.933Z,152717.38
2022-09-17T21:49:07.453Z,152692.94
2022-09-17T21:51:37.149Z,152731.56
2022-09-17T21:54:07.143Z,152747.03
2022-09-17T21:56:35.074Z,152736.75
2022-09-17T21:59:04.358Z,152678.75
2022-09-17T22:01:35.386Z,152748.31
2022-09-17T22:04:03.325Z,152747.03
2022-09-17T22:06:32.895Z,152683.94
2022-09-17T22:09:02.647Z,152676.16
2022-09-17T22:11:31.824Z,152649.13
2022-09-17T22:14:04.701Z,152649.13
2022-09-17T22:16:35.804Z,152587.31
2022-09-17T22:19:04.950Z,150579.88
2022-09-17T22:24:27.082Z,152646.53
2022-09-17T22:26:58.382Z,152637.53
2022-09-17T22:29:28.354Z,152673.59
2022-09-17T22:31:57.134Z,152659.41
2022-09-17T22:34:25.773Z,152656.88
2022-09-17T22:36:54.742Z,152680.03
2022-09-17T22:39:22.817Z,152651.72
2022-09-17T22:41:50.563Z,152647.81
2022-09-17T22:44:19.422Z,152674.88
2022-09-17T22:46:48.745Z,152669.75
2022-09-17T22:49:16.768Z,152664.59
2022-09-17T22:51:45.021Z,152649.13
2022-09-17T22:54:15.380Z,152615.66
2022-09-17T22:56:43.468Z,152597.63
2022-09-17T22:59:10.918Z,152584.75
2022-09-17T23:01:40.366Z,152589.91
2022-09-17T23:04:07.826Z,152569.28
2022-09-17T23:06:38.226Z,152644.00
2022-09-17T23:09:06.217Z,152605.31
2022-09-17T23:11:37.253Z,152574.44
2022-09-17T23:14:06.458Z,152597.63
2022-09-17T23:16:35.731Z,152591.16
2022-09-17T23:19:03.159Z,152589.91
2022-09-17T23:21:30.705Z,152562.88
2022-09-17T23:23:58.051Z,151473.72
2022-09-17T23:26:26.911Z,152607.91
2022-09-17T23:28:55.753Z,151555.56
2022-09-17T23:31:28.070Z,143225.91
2022-09-17T23:33:57.044Z,136982.50
2022-09-17T23:36:26.869Z,131824.94
2022-09-17T23:38:55.810Z,129071.75
2022-09-17T23:41:24.636Z,126627.56
2022-09-17T23:43:53.808Z,122522.88
2022-09-17T23:46:24.813Z,122132.66
2022-09-17T23:48:53.624Z,116644.03
2022-09-17T23:51:21.788Z,114591.06
2022-09-17T23:53:49.189Z,114577.56
2022-09-17T23:56:21.121Z,113528.59
2022-09-17T23:58:49.421Z,109827.94
